Time;durP1;ratioP1;P1;durP2;ratioP2;P2;SDS_P1;SDS_P2;PMS_P1;PMS_P2;Temp;Humidity;BMP_temperature;BMP_pressure;BME280_temperature;BME280_humidity;BME280_pressure;Samples;Min_cycle;Max_cycle;Signal;HPM_P1;HPM_P2
2021/09/26 00:00:17;;;;;;;12.55;7.38;;;;;;;14.79;96.23;95749.63;4970132;28;20046;-78
2021/09/26 00:03:03;;;;;;;11.43;7.18;;;;;;;14.75;96.14;95738.78;4972192;28;20051;-78
2021/09/26 00:05:28;;;;;;;10.77;7.10;;;;;;;14.64;97.16;95735.53;4969061;28;20057;-78
2021/09/26 00:07:54;;;;;;;12.27;7.45;;;;;;;14.62;97.22;95735.03;4962016;28;20089;-78
2021/09/26 00:10:19;;;;;;;12.48;7.22;;;;;;;14.86;96.74;95731.47;4971549;28;20504;-78
2021/09/26 00:12:45;;;;;;;11.93;7.05;;;;;;;14.89;96.86;95734.31;4971565;28;20078;-78
2021/09/26 00:15:15;;;;;;;10.52;6.55;;;;;;;14.84;96.81;95746.88;4970993;28;20046;-78
2021/09/26 00:17:40;;;;;;;11.90;6.40;;;;;;;14.81;96.05;95739.50;4967138;28;20042;-78
2021/09/26 00:20:07;;;;;;;15.30;6.50;;;;;;;14.88;95.44;95740.72;4971488;28;20094;-78
2021/09/26 00:22:33;;;;;;;11.43;6.40;;;;;;;14.91;96.30;95739.31;4969870;28;20066;-78
2021/09/26 00:24:58;;;;;;;8.15;5.90;;;;;;;14.87;94.59;95744.44;4970424;28;20547;-78
2021/09/26 00:27:24;;;;;;;11.60;5.85;;;;;;;14.96;94.98;95744.56;4968856;28;20050;-78
2021/09/26 00:29:49;;;;;;;9.70;5.88;;;;;;;15.10;94.11;95741.13;4966807;28;20050;-78
2021/09/26 00:32:15;;;;;;;8.65;5.40;;;;;;;14.97;95.08;95743.47;4951813;28;20047;-78
2021/09/26 00:34:41;;;;;;;10.25;6.05;;;;;;;14.91;96.28;95741.97;4968038;28;20046;-78
2021/09/26 00:37:07;;;;;;;11.05;6.47;;;;;;;14.92;95.53;95735.59;4962838;28;20047;-77
2021/09/26 00:39:32;;;;;;;9.43;5.85;;;;;;;14.91;96.30;95739.31;4970536;28;20537;-78
2021/09/26 00:41:58;;;;;;;10.68;5.40;;;;;;;15.10;95.92;95735.84;4970452;28;20039;-77
2021/09/26 00:44:24;;;;;;;9.32;6.40;;;;;;;15.13;95.21;95740.53;4967914;28;20046;-77
2021/09/26 00:46:51;;;;;;;8.75;5.80;;;;;;;15.09;95.72;95731.63;4970019;28;20047;-78
2021/09/26 00:49:17;;;;;;;10.48;6.07;;;;;;;15.07;95.95;95731.94;4963248;28;20094;-77
2021/09/26 00:51:44;;;;;;;9.18;5.88;;;;;;;14.96;96.36;95728.66;4950858;29;20086;-78
2021/09/26 00:54:11;;;;;;;12.95;6.03;;;;;;;14.95;97.71;95729.72;4953073;28;20047;-78
2021/09/26 00:56:37;;;;;;;10.23;5.97;;;;;;;15.20;96.11;95730.34;4951131;28;20051;-78
2021/09/26 00:59:03;;;;;;;9.30;5.88;;;;;;;15.24;95.52;95728.69;4960464;28;20390;-78
2021/09/26 01:01:29;;;;;;;9.55;6.15;;;;;;;15.21;96.32;95729.28;4951050;29;20043;-78
2021/09/26 01:03:55;;;;;;;10.48;6.00;;;;;;;15.14;96.44;95736.81;4958958;28;20045;-77
2021/09/26 01:06:43;;;;;;;9.10;5.93;;;;;;;15.07;96.63;95742.53;4965030;28;20043;-78
2021/09/26 01:10:10;;;;;;;8.98;5.97;;;;;;;15.06;96.65;95731.13;4961716;28;20254;-78
2021/09/26 01:12:41;;;;;;;10.38;5.85;;;;;;;15.12;96.34;95733.69;4925390;29;20090;-78
2021/09/26 01:15:25;;;;;;;11.88;6.30;;;;;;;15.13;96.38;95740.53;4948273;28;20556;-78
2021/09/26 01:18:01;;;;;;;10.85;6.22;;;;;;;15.10;96.14;95752.53;4950563;28;20054;-78
2021/09/26 01:20:40;;;;;;;9.50;6.38;;;;;;;15.09;96.34;95745.66;4967274;28;20035;-78
2021/09/26 01:23:05;;;;;;;11.48;6.28;;;;;;;15.09;96.54;95745.66;4964347;28;20039;-77
2021/09/26 01:25:49;;;;;;;11.65;6.35;;;;;;;15.15;96.34;95743.72;4955786;28;20051;-77
2021/09/26 01:29:11;;;;;;;10.20;5.88;;;;;;;15.20;96.40;95738.28;4983200;28;20050;-78
2021/09/26 01:31:44;;;;;;;11.82;6.30;;;;;;;15.23;95.72;95740.38;4934105;28;20141;-78
2021/09/26 01:34:29;;;;;;;9.75;6.07;;;;;;;15.32;95.39;95743.91;4964989;28;20050;-78
2021/09/26 01:37:04;;;;;;;10.88;6.07;;;;;;;15.22;96.10;95752.06;4970917;28;20049;-78
2021/09/26 01:39:36;;;;;;;12.00;5.93;;;;;;;15.00;97.42;95748.19;4974004;28;20057;-77
2021/09/26 01:42:12;;;;;;;9.98;5.53;;;;;;;14.70;99.36;95750.28;4971871;28;20397;-78
2021/09/26 01:44:50;;;;;;;9.15;5.75;;;;;;;14.64;99.42;95746.13;4965647;28;20059;-78
2021/09/26 01:47:19;;;;;;;9.90;6.43;;;;;;;14.59;100.00;95748.81;4969353;28;20038;-78
2021/09/26 01:49:50;;;;;;;9.55;6.30;;;;;;;14.54;100.00;95746.28;4972373;28;20074;-78
2021/09/26 01:52:24;;;;;;;9.27;6.20;;;;;;;14.58;100.00;95751.75;4971678;28;20061;-78
2021/09/26 01:54:50;;;;;;;9.13;5.87;;;;;;;14.75;99.45;95756.56;4960120;28;20465;-78
2021/09/26 01:57:20;;;;;;;12.88;5.70;;;;;;;15.00;97.97;95753.50;4969891;28;20280;-78
2021/09/26 01:59:50;;;;;;;11.20;5.65;;;;;;;14.98;97.85;95758.28;4973499;28;20046;-78
2021/09/26 02:02:18;;;;;;;11.75;6.68;;;;;;;14.88;97.94;95750.50;4967958;28;20042;-78
2021/09/26 02:04:47;;;;;;;14.73;6.32;;;;;;;14.61;99.56;95746.69;4973333;28;20052;-77
2021/09/26 02:07:13;;;;;;;12.32;5.90;;;;;;;14.44;100.00;95743.75;4961246;28;20039;-78
2021/09/26 02:09:44;;;;;;;9.35;6.10;;;;;;;14.40;100.00;95745.44;4971000;28;20109;-78
2021/09/26 02:12:12;;;;;;;9.98;6.03;;;;;;;14.38;100.00;95748.38;4973001;28;20489;-78
2021/09/26 02:14:39;;;;;;;10.38;6.35;;;;;;;14.63;100.00;95744.56;4972740;28;20050;-78
2021/09/26 02:17:06;;;;;;;9.82;5.90;;;;;;;14.86;99.36;95755.31;4971539;28;20043;-78
2021/09/26 02:19:33;;;;;;;12.43;6.20;;;;;;;14.78;99.06;95754.09;4972831;28;20043;-78
2021/09/26 02:21:59;;;;;;;9.38;6.20;;;;;;;14.80;99.31;95753.84;4971636;28;20795;-78
2021/09/26 02:24:26;;;;;;;10.55;6.63;;;;;;;14.80;99.43;95749.31;4964448;28;20050;-78
2021/09/26 02:26:52;;;;;;;11.65;6.20;;;;;;;14.79;100.00;95753.03;4957948;28;20066;-78
2021/09/26 02:29:17;;;;;;;9.50;6.40;;;;;;;14.56;100.00;95744.09;4970492;28;20076;-78
2021/09/26 02:31:43;;;;;;;9.60;5.68;;;;;;;14.52;100.00;95743.09;4970501;28;20420;-78
2021/09/26 02:34:08;;;;;;;10.82;6.07;;;;;;;14.47;100.00;95745.84;4976763;28;20039;-78
2021/09/26 02:36:34;;;;;;;9.75;5.95;;;;;;;14.31;100.00;95738.13;4971779;28;20045;-78
2021/09/26 02:39:01;;;;;;;9.55;6.15;;;;;;;14.11;100.00;95743.72;4972382;28;20047;-78
2021/09/26 02:41:54;;;;;;;10.13;6.38;;;;;;;13.89;100.00;95736.31;4963697;28;20067;-77
2021/09/26 02:44:31;;;;;;;10.30;5.93;;;;;;;14.06;100.00;95741.13;4956273;28;20047;-78
2021/09/26 02:47:03;;;;;;;8.98;6.13;;;;;;;14.09;100.00;95746.63;4959100;28;20049;-78
2021/09/26 02:49:29;;;;;;;9.80;6.32;;;;;;;14.08;100.00;95737.13;4972008;28;20544;-78
2021/09/26 02:51:55;;;;;;;10.63;5.50;;;;;;;14.00;100.00;95733.25;4970830;28;20593;-78
2021/09/26 02:54:22;;;;;;;10.23;6.00;;;;;;;13.96;100.00;95737.53;4966922;28;20497;-78
2021/09/26 02:56:49;;;;;;;10.32;6.07;;;;;;;13.76;100.00;95735.94;4972543;28;20038;-78
2021/09/26 02:59:15;;;;;;;9.70;5.78;;;;;;;13.67;100.00;95735.78;4970628;28;20497;-78
2021/09/26 03:01:49;;;;;;;10.82;6.38;;;;;;;13.53;100.00;95737.53;4971606;28;20043;-78
2021/09/26 03:04:15;;;;;;;;;;;;;;;13.71;100.00;95738.66;4972643;28;20043;-78
2021/09/26 03:06:40;;;;;;;11.43;6.18;;;;;;;13.66;100.00;95728.94;4964464;28;19941;-78
2021/09/26 03:09:06;;;;;;;8.85;5.50;;;;;;;13.69;100.00;95733.66;4963692;28;20122;-78
2021/09/26 03:11:32;;;;;;;10.40;6.03;;;;;;;13.64;100.00;95736.34;4971453;28;20065;-78
2021/09/26 03:13:57;;;;;;;11.52;6.10;;;;;;;13.65;100.00;95731.88;4972244;28;20504;-78
2021/09/26 03:16:23;;;;;;;11.52;6.20;;;;;;;13.59;100.00;95728.50;4957629;28;20501;-78
2021/09/26 03:18:48;;;;;;;9.02;6.03;;;;;;;13.51;100.00;95731.75;4971319;28;20038;-78
2021/09/26 03:21:14;;;;;;;10.07;6.00;;;;;;;13.52;100.00;95738.63;4973618;28;20053;-78
2021/09/26 03:23:40;;;;;;;9.93;5.53;;;;;;;13.52;100.00;95728.06;4972127;28;20053;-78
2021/09/26 03:26:06;;;;;;;10.13;5.78;;;;;;;13.44;100.00;95726.00;4953645;28;20051;-78
2021/09/26 03:28:31;;;;;;;8.38;5.40;;;;;;;13.43;100.00;95725.25;4964159;28;20059;-78
2021/09/26 03:30:57;;;;;;;8.82;5.32;;;;;;;13.49;100.00;95728.63;4951549;29;20101;-78
2021/09/26 03:33:22;;;;;;;8.73;5.88;;;;;;;13.58;100.00;95726.91;4966599;28;20653;-78
2021/09/26 03:35:48;;;;;;;10.07;5.85;;;;;;;13.71;100.00;95724.66;4971736;28;20114;-78
2021/09/26 03:38:13;;;;;;;11.52;5.70;;;;;;;13.41;100.00;95716.00;4969933;28;20140;-78
2021/09/26 03:40:39;;;;;;;9.18;5.97;;;;;;;13.15;100.00;95713.63;4970571;28;20062;-78
2021/09/26 03:43:05;;;;;;;9.00;6.03;;;;;;;12.97;100.00;95713.25;4969881;28;20097;-78
2021/09/26 03:45:30;;;;;;;10.70;6.40;;;;;;;13.20;100.00;95720.69;4969701;28;20046;-78
2021/09/26 03:47:56;;;;;;;8.52;5.95;;;;;;;13.14;100.00;95706.75;4969217;28;20043;-78
2021/09/26 03:50:22;;;;;;;8.00;5.65;;;;;;;13.11;100.00;95712.59;4954037;28;20054;-78
2021/09/26 03:52:47;;;;;;;8.40;5.78;;;;;;;13.03;100.00;95708.72;4968044;28;20043;-78
2021/09/26 03:55:13;;;;;;;10.23;5.85;;;;;;;13.04;100.00;95701.56;4969755;28;20460;-78
2021/09/26 03:57:39;;;;;;;12.48;5.88;;;;;;;13.04;100.00;95696.28;4970905;28;20058;-78
2021/09/26 04:00:07;;;;;;;9.00;5.15;;;;;;;12.97;100.00;95696.59;4963870;28;20097;-78
2021/09/26 04:02:33;;;;;;;8.45;5.50;;;;;;;13.07;100.00;95698.38;4967501;28;20047;-78
2021/09/26 04:04:58;;;;;;;9.20;5.70;;;;;;;13.31;100.00;95696.50;4971738;28;20050;-78
2021/09/26 04:07:24;;;;;;;7.65;5.25;;;;;;;13.09;100.00;95704.16;4969318;28;20053;-78
2021/09/26 04:09:50;;;;;;;8.15;5.30;;;;;;;12.97;100.00;95692.13;4970964;28;20105;-78
2021/09/26 04:12:16;;;;;;;9.32;5.88;;;;;;;12.93;100.00;95691.09;4971024;28;20051;-78
2021/09/26 04:14:41;;;;;;;8.52;5.78;;;;;;;12.88;100.00;95691.16;4970115;28;20650;-78
2021/09/26 04:17:07;;;;;;;8.70;5.53;;;;;;;12.82;100.00;95694.91;4969521;28;20039;-78
2021/09/26 04:19:33;;;;;;;8.73;5.57;;;;;;;12.76;100.00;95701.31;4970734;28;20042;-78
2021/09/26 04:21:59;;;;;;;10.65;5.72;;;;;;;12.67;100.00;95695.03;4978357;28;20042;-78
2021/09/26 04:24:25;;;;;;;10.32;6.07;;;;;;;12.71;100.00;95698.72;4976052;28;20043;-79
2021/09/26 04:26:51;;;;;;;10.02;5.95;;;;;;;12.56;100.00;95695.13;4971362;28;20390;-78
2021/09/26 04:29:17;;;;;;;8.57;6.03;;;;;;;12.60;100.00;95698.81;4970317;28;20143;-78
2021/09/26 04:31:42;;;;;;;8.23;5.28;;;;;;;12.56;100.00;95686.44;4970015;28;20059;-78
2021/09/26 04:34:08;;;;;;;8.55;5.40;;;;;;;12.54;100.00;95694.63;4958213;28;20038;-78
2021/09/26 04:36:34;;;;;;;8.13;5.53;;;;;;;12.46;100.00;95688.09;4968304;28;20062;-79
2021/09/26 04:38:59;;;;;;;9.20;5.60;;;;;;;12.42;100.00;95691.56;4970282;28;20058;-78
2021/09/26 04:41:25;;;;;;;9.27;5.50;;;;;;;12.27;100.00;95690.63;4969932;28;20590;-77
2021/09/26 04:43:50;;;;;;;11.07;6.03;;;;;;;12.13;100.00;95674.59;4968929;28;20147;-78
2021/09/26 04:46:16;;;;;;;9.07;5.75;;;;;;;12.43;100.00;95677.31;4969460;28;20050;-77
2021/09/26 04:48:42;;;;;;;10.05;5.70;;;;;;;12.37;100.00;95673.13;4970065;28;20046;-78
2021/09/26 04:51:07;;;;;;;11.85;5.53;;;;;;;12.22;100.00;95676.66;4970432;28;20420;-78
2021/09/26 04:53:33;;;;;;;10.13;6.05;;;;;;;12.13;100.00;95669.34;4968333;28;20051;-78
2021/09/26 04:55:58;;;;;;;9.50;5.55;;;;;;;12.23;100.00;95675.63;4962031;28;20035;-78
2021/09/26 04:58:24;;;;;;;9.15;5.60;;;;;;;12.17;100.00;95664.31;4972691;28;20063;-78
2021/09/26 05:00:50;;;;;;;8.80;5.50;;;;;;;12.12;100.00;95669.59;4977430;28;20057;-78
2021/09/26 05:03:17;;;;;;;13.55;5.30;;;;;;;12.09;100.00;95662.25;4974447;28;20501;-78
2021/09/26 05:05:42;;;;;;;8.65;5.38;;;;;;;12.02;100.00;95667.03;4970579;28;20039;-78
2021/09/26 05:08:08;;;;;;;12.57;5.80;;;;;;;12.03;100.00;95663.34;4963614;28;20046;-78
2021/09/26 05:10:34;;;;;;;9.40;5.60;;;;;;;11.93;100.00;95664.19;4961316;28;20390;-78
2021/09/26 05:12:59;;;;;;;8.73;5.60;;;;;;;11.83;100.00;95675.56;4958663;28;20147;-77
2021/09/26 05:15:25;;;;;;;12.27;6.40;;;;;;;11.86;100.00;95675.00;4964304;28;20042;-78
2021/09/26 05:17:50;;;;;;;9.30;5.43;;;;;;;12.02;100.00;95672.31;4969231;28;20463;-78
2021/09/26 05:20:16;;;;;;;8.60;5.40;;;;;;;12.27;100.00;95685.34;4970650;28;20126;-77
2021/09/26 05:22:42;;;;;;;8.52;5.40;;;;;;;12.40;100.00;95677.88;4964941;28;20039;-78
2021/09/26 05:25:08;;;;;;;9.48;5.70;;;;;;;12.51;100.00;95689.88;4951453;28;20085;-78
2021/09/26 05:27:34;;;;;;;11.88;5.65;;;;;;;12.50;100.00;95677.78;4963473;28;20141;-77
2021/09/26 05:30:00;;;;;;;7.93;5.38;;;;;;;12.56;100.00;95681.94;4968455;28;20074;-77
2021/09/26 05:32:25;;;;;;;10.05;5.70;;;;;;;12.55;100.00;95683.00;4957259;28;20054;-77
2021/09/26 05:34:51;;;;;;;10.35;5.65;;;;;;;12.72;100.00;95689.72;4961336;28;20109;-77
2021/09/26 05:37:17;;;;;;;9.23;5.72;;;;;;;12.75;100.00;95689.16;4959020;28;20681;-79
2021/09/26 05:39:42;;;;;;;8.60;5.63;;;;;;;12.69;100.00;95685.00;4967958;28;20039;-78
2021/09/26 05:42:08;;;;;;;8.82;5.70;;;;;;;12.68;100.00;95691.34;4969116;28;20531;-79
2021/09/26 05:44:35;;;;;;;9.38;5.57;;;;;;;12.79;100.00;95696.25;4967370;28;20035;-79
2021/09/26 05:47:02;;;;;;;10.60;6.13;;;;;;;12.99;100.00;95684.69;4958556;28;20061;-79
2021/09/26 05:49:27;;;;;;;10.43;6.15;;;;;;;13.13;100.00;95679.53;4969847;28;20110;-79
2021/09/26 05:51:53;;;;;;;11.13;6.07;;;;;;;13.17;100.00;95687.69;4969440;28;20057;-79
2021/09/26 05:54:19;;;;;;;11.07;5.70;;;;;;;13.09;100.00;95683.03;4953362;28;20051;-79
2021/09/26 05:56:45;;;;;;;11.75;5.88;;;;;;;13.07;100.00;95674.59;4956983;28;20042;-79
2021/09/26 05:59:10;;;;;;;10.43;5.65;;;;;;;13.09;100.00;95667.19;4969367;28;20062;-79
2021/09/26 06:01:36;;;;;;;10.27;6.00;;;;;;;13.24;100.00;95669.63;4967467;28;20525;-79
2021/09/26 06:04:01;;;;;;;9.57;5.78;;;;;;;13.45;100.00;95669.44;4955584;28;20122;-79
2021/09/26 06:06:27;;;;;;;10.27;5.75;;;;;;;13.65;100.00;95679.75;4957087;28;20047;-79
2021/09/26 06:08:53;;;;;;;8.82;5.45;;;;;;;13.79;100.00;95669.25;4966516;28;20039;-78
2021/09/26 06:11:18;;;;;;;9.00;5.57;;;;;;;13.95;100.00;95671.69;4972440;28;20591;-79
2021/09/26 06:13:44;;;;;;;9.48;5.30;;;;;;;13.93;100.00;95679.91;4974343;28;20081;-80
2021/09/26 06:16:09;;;;;;;11.13;5.20;;;;;;;14.00;100.00;95682.97;4953956;28;20051;-79
2021/09/26 06:18:35;;;;;;;7.95;5.40;;;;;;;14.04;100.00;95686.63;4963657;28;20073;-79
2021/09/26 06:21:01;;;;;;;8.95;5.47;;;;;;;14.14;100.00;95695.50;4971090;28;20567;-79
2021/09/26 06:23:27;;;;;;;9.18;5.50;;;;;;;14.20;100.00;95691.69;4963442;28;20449;-78
2021/09/26 06:25:52;;;;;;;8.77;4.95;;;;;;;14.35;100.00;95691.47;4977063;28;20043;-78
2021/09/26 06:28:18;;;;;;;9.63;5.20;;;;;;;14.35;100.00;95688.81;4973352;28;20501;-78
2021/09/26 06:30:45;;;;;;;10.63;5.43;;;;;;;14.48;100.00;95689.94;4969194;28;20043;-78
2021/09/26 06:33:10;;;;;;;10.38;5.22;;;;;;;14.52;100.00;95695.44;4953724;28;20055;-78
2021/09/26 06:35:36;;;;;;;8.45;5.22;;;;;;;14.63;100.00;95696.88;4967846;28;20054;-78
2021/09/26 06:38:01;;;;;;;9.63;4.88;;;;;;;14.68;99.75;95704.75;4967356;28;20043;-79
2021/09/26 06:40:27;;;;;;;8.13;4.82;;;;;;;14.92;97.79;95698.50;4971368;28;20081;-78
2021/09/26 06:42:53;;;;;;;9.63;4.93;;;;;;;14.97;97.67;95700.28;4970404;28;20070;-78
2021/09/26 06:45:18;;;;;;;11.48;5.13;;;;;;;14.88;98.29;95692.22;4970567;28;20093;-78
2021/09/26 06:47:44;;;;;;;9.07;5.07;;;;;;;14.90;97.99;95695.38;4965814;28;20110;-77
2021/09/26 06:50:10;;;;;;;8.13;4.70;;;;;;;14.80;98.75;95700.88;4970982;28;20113;-76
2021/09/26 06:52:37;;;;;;;10.15;4.57;;;;;;;14.72;99.16;95700.44;4971889;28;20567;-77
2021/09/26 06:55:03;;;;;;;11.50;4.93;;;;;;;14.77;100.00;95704.88;4970716;28;20722;-77
2021/09/26 06:57:29;;;;;;;7.53;4.82;;;;;;;14.81;99.02;95707.72;4964003;28;20039;-77
2021/09/26 06:59:54;;;;;;;11.18;4.32;;;;;;;14.95;98.63;95703.22;4968544;28;20046;-77
2021/09/26 07:02:23;;;;;;;11.27;4.68;;;;;;;15.07;97.80;95700.91;4971025;28;20046;-77
2021/09/26 07:04:49;;;;;;;8.65;4.82;;;;;;;15.01;98.38;95707.38;4971658;28;20035;-77
2021/09/26 07:07:16;;;;;;;7.63;4.50;;;;;;;15.07;97.01;95700.91;4967990;28;20043;-77
2021/09/26 07:09:42;;;;;;;9.63;4.60;;;;;;;15.28;95.03;95705.81;4970255;28;20047;-76
2021/09/26 07:12:09;;;;;;;9.25;4.65;;;;;;;15.36;94.22;95702.47;4971504;28;20039;-76
2021/09/26 07:14:34;;;;;;;10.13;4.32;;;;;;;15.46;92.61;95698.03;4972022;28;20122;-76
2021/09/26 07:17:00;;;;;;;12.30;4.85;;;;;;;15.31;95.11;95689.31;4971980;28;20130;-77
2021/09/26 07:19:26;;;;;;;6.43;3.97;;;;;;;15.23;95.88;95692.66;4972927;28;20069;-77
2021/09/26 07:21:51;;;;;;;7.35;4.38;;;;;;;15.19;96.31;95695.09;4971496;28;20074;-76
2021/09/26 07:24:17;;;;;;;10.35;4.75;;;;;;;15.31;95.63;95694.63;4971753;28;20096;-78
2021/09/26 07:26:43;;;;;;;7.47;4.03;;;;;;;15.69;94.19;95688.31;4965375;28;20500;-79
2021/09/26 07:29:08;;;;;;;7.18;3.95;;;;;;;15.89;92.35;95687.13;4971464;28;20042;-78
2021/09/26 07:31:36;;;;;;;7.95;4.38;;;;;;;15.84;94.62;95684.56;4970978;28;20063;-77
2021/09/26 07:34:03;;;;;;;9.60;4.20;;;;;;;15.94;94.09;95673.75;4971637;28;20417;-78
2021/09/26 07:36:29;;;;;;;11.55;4.07;;;;;;;16.37;91.46;95665.31;4968484;28;20731;-78
2021/09/26 07:38:54;;;;;;;8.10;4.05;;;;;;;16.19;93.03;95668.94;4970669;28;20565;-77
2021/09/26 07:41:20;;;;;;;7.85;3.72;;;;;;;16.45;90.79;95667.25;4970447;28;20052;-77
2021/09/26 07:43:46;;;;;;;8.70;4.47;;;;;;;16.75;89.06;95664.94;4968991;28;20261;-77
2021/09/26 07:46:12;;;;;;;9.10;3.70;;;;;;;17.02;86.01;95663.19;4966885;28;20773;-78
2021/09/26 07:48:37;;;;;;;7.35;3.67;;;;;;;17.10;85.05;95670.44;4971628;28;20047;-77
2021/09/26 07:51:03;;;;;;;7.10;3.67;;;;;;;17.00;87.06;95665.38;4969628;28;20531;-77
2021/09/26 07:53:28;;;;;;;8.02;4.20;;;;;;;17.13;86.00;95667.16;4951413;28;20120;-78
2021/09/26 07:55:55;;;;;;;7.78;4.10;;;;;;;17.34;84.24;95663.97;4951715;28;20070;-76
2021/09/26 07:58:21;;;;;;;6.88;4.00;;;;;;;17.45;83.04;95665.22;4950168;28;20066;-77
2021/09/26 08:00:47;;;;;;;6.18;3.75;;;;;;;17.55;84.06;95658.06;4949968;28;20047;-78
2021/09/26 08:03:12;;;;;;;9.55;3.63;;;;;;;17.57;84.61;95661.16;4962072;28;20055;-78
2021/09/26 08:05:38;;;;;;;10.13;3.90;;;;;;;17.80;82.96;95654.66;4952279;29;20043;-77
2021/09/26 08:08:04;;;;;;;13.35;3.88;;;;;;;17.66;84.29;95654.00;4957060;28;20039;-77
2021/09/26 08:10:29;;;;;;;8.00;3.58;;;;;;;17.45;86.38;95649.25;4970195;28;20045;-79
2021/09/26 08:12:55;;;;;;;11.02;3.88;;;;;;;17.36;86.52;95651.13;4970770;28;20536;-76
2021/09/26 08:15:21;;;;;;;7.95;3.90;;;;;;;17.67;83.28;95652.91;4957961;28;20621;-76
2021/09/26 08:17:47;;;;;;;7.70;3.58;;;;;;;17.63;84.78;95644.00;4951287;28;20051;-77
2021/09/26 08:20:13;;;;;;;6.50;3.47;;;;;;;17.53;85.80;95649.59;4966469;28;20047;-77
2021/09/26 08:22:39;;;;;;;8.82;3.20;;;;;;;17.93;81.77;95660.94;4970409;28;20195;-77
2021/09/26 08:25:06;;;;;;;7.28;3.75;;;;;;;18.00;82.87;95657.81;4964413;28;20039;-77
2021/09/26 08:27:33;;;;;;;7.45;3.33;;;;;;;17.97;82.48;95653.09;4971107;28;20034;-78
2021/09/26 08:29:59;;;;;;;8.32;3.53;;;;;;;18.10;82.72;95652.19;4970489;28;20046;-77
2021/09/26 08:32:25;;;;;;;8.20;3.50;;;;;;;18.32;80.08;95653.13;4966424;28;20062;-76
2021/09/26 08:34:51;;;;;;;7.47;3.47;;;;;;;18.45;80.44;95644.16;4967800;28;20042;-76
2021/09/26 08:37:16;;;;;;;7.38;3.33;;;;;;;18.93;76.38;95645.00;4970056;28;20516;-76
2021/09/26 08:39:42;;;;;;;7.22;3.50;;;;;;;19.17;74.32;95647.09;4969718;28;20109;-77
2021/09/26 08:42:08;;;;;;;8.43;3.40;;;;;;;19.38;72.61;95651.72;4970143;28;20043;-77
2021/09/26 08:44:33;;;;;;;9.45;3.78;;;;;;;19.29;75.90;95656.31;4963209;28;20062;-77
2021/09/26 08:47:00;;;;;;;5.85;3.10;;;;;;;19.11;77.16;95656.38;4960975;28;20134;-77
2021/09/26 08:49:26;;;;;;;7.00;3.30;;;;;;;19.21;76.04;95656.03;4953079;28;20039;-77
2021/09/26 08:51:53;;;;;;;6.93;3.75;;;;;;;19.50;74.32;95662.47;4969375;28;20053;-77
2021/09/26 08:54:20;;;;;;;9.00;3.75;;;;;;;19.76;74.34;95664.19;4969990;28;20039;-76
2021/09/26 08:56:46;;;;;;;9.32;3.25;;;;;;;20.19;68.69;95665.78;4969135;28;20046;-76
2021/09/26 08:59:13;;;;;;;5.63;3.53;;;;;;;20.50;67.80;95675.28;4970315;28;20054;-77
2021/09/26 09:01:39;;;;;;;7.88;3.90;;;;;;;20.68;66.14;95675.13;4965993;28;20046;-79
2021/09/26 09:04:05;;;;;;;6.97;3.40;;;;;;;20.69;67.04;95666.78;4969028;28;20082;-78
2021/09/26 09:06:39;;;;;;;9.25;3.40;;;;;;;21.00;66.70;95664.72;4965681;28;20051;-77
2021/09/26 09:09:06;;;;;;;;;;;;;;;21.36;64.25;95665.84;4952694;29;20040;-78
2021/09/26 09:11:32;;;;;;;7.45;3.33;;;;;;;21.43;63.36;95671.44;4950569;29;19922;-77
2021/09/26 09:13:59;;;;;;;9.00;3.80;;;;;;;21.40;66.97;95672.88;4960137;28;20047;-77
2021/09/26 09:16:31;;;;;;;7.20;3.40;;;;;;;21.52;63.41;95672.16;4970190;28;20493;-77
2021/09/26 09:18:57;;;;;;;7.68;3.80;;;;;;;21.62;65.93;95674.38;4970759;28;20042;-77
2021/09/26 09:21:34;;;;;;;9.43;3.70;;;;;;;21.57;65.45;95679.94;4966389;28;20036;-77
2021/09/26 09:24:15;;;;;;;8.98;3.47;;;;;;;21.42;63.63;95669.88;4965180;28;20074;-77
2021/09/26 09:26:44;;;;;;;12.88;3.38;;;;;;;21.20;62.36;95668.41;4971160;28;20051;-78
2021/09/26 09:29:11;;;;;;;8.63;3.38;;;;;;;21.41;61.93;95657.63;4969970;28;20086;-78
2021/09/26 09:31:57;;;;;;;10.85;3.78;;;;;;;21.98;59.72;95674.66;4956663;28;20081;-77
2021/09/26 09:34:40;;;;;;;8.73;3.45;;;;;;;22.26;59.15;95680.00;4965828;28;20050;-78
2021/09/26 09:37:22;;;;;;;7.70;3.63;;;;;;;22.39;59.51;95675.41;4956139;28;20049;-77
2021/09/26 09:40:14;;;;;;;8.40;3.70;;;;;;;22.32;59.30;95664.47;4969129;28;20043;-80
2021/09/26 09:42:47;;;;;;;9.80;3.47;;;;;;;22.30;60.74;95672.84;4956000;28;20054;-82
2021/09/26 09:45:26;;;;;;;9.32;3.88;;;;;;;22.06;62.80;95670.25;4973786;28;20039;-80
2021/09/26 09:48:00;;;;;;;10.13;3.70;;;;;;;21.90;61.90;95670.97;4965987;28;20525;-79
2021/09/26 09:50:54;;;;;;;10.88;3.65;;;;;;;21.83;62.59;95668.06;4969195;28;20038;-81
2021/09/26 09:53:27;;;;;;;10.20;3.60;;;;;;;22.10;63.59;95673.81;4954154;28;20051;-78
2021/09/26 09:56:02;;;;;;;7.88;3.35;;;;;;;22.04;60.82;95667.13;4972604;28;20039;-80
2021/09/26 09:58:34;;;;;;;10.77;3.78;;;;;;;21.77;61.03;95670.19;4973791;28;20043;-80
2021/09/26 10:01:00;;;;;;;11.18;3.92;;;;;;;21.66;61.59;95673.69;4961504;28;20637;-78
2021/09/26 10:03:36;;;;;;;9.73;3.88;;;;;;;21.78;61.24;95676.34;4972267;28;20098;-80
2021/09/26 10:06:18;;;;;;;9.77;4.00;;;;;;;22.06;62.58;95672.94;4969116;28;20042;-77
2021/09/26 10:08:44;;;;;;;13.05;4.32;;;;;;;21.82;60.09;95677.22;4954702;28;20043;-78
2021/09/26 10:11:10;;;;;;;10.10;3.75;;;;;;;21.97;61.93;95673.84;4969646;28;20054;-82
2021/09/26 10:13:36;;;;;;;14.27;4.00;;;;;;;22.07;60.83;95687.91;4965043;28;20058;-80
2021/09/26 10:16:09;;;;;;;16.15;3.78;;;;;;;22.30;61.62;95683.56;4966552;28;20444;-80
2021/09/26 10:18:37;;;;;;;8.40;4.18;;;;;;;22.14;61.10;95693.47;4973846;28;20046;-78
2021/09/26 10:21:05;;;;;;;11.32;4.10;;;;;;;21.98;62.35;95691.50;4971512;28;20060;-80
2021/09/26 10:23:30;;;;;;;9.27;4.00;;;;;;;22.45;63.19;95698.19;4972051;28;20046;-80
2021/09/26 10:25:58;;;;;;;16.67;4.32;;;;;;;22.80;61.27;95702.97;4966152;28;20081;-77
2021/09/26 10:28:28;;;;;;;7.97;4.10;;;;;;;22.64;63.76;95708.28;4972608;28;20125;-78
2021/09/26 10:31:01;;;;;;;13.20;4.10;;;;;;;22.55;62.94;95710.31;4972611;28;20410;-81
2021/09/26 10:33:27;;;;;;;9.90;4.30;;;;;;;22.51;62.67;95700.63;4963026;28;20102;-81
2021/09/26 10:35:55;;;;;;;13.52;4.38;;;;;;;22.49;62.21;95693.69;4961405;28;20110;-80
2021/09/26 10:38:22;;;;;;;8.85;4.20;;;;;;;22.92;57.79;95694.06;4964967;28;20089;-77
2021/09/26 10:40:48;;;;;;;12.13;4.38;;;;;;;23.09;57.55;95686.81;4971076;28;20050;-80
2021/09/26 10:43:28;;;;;;;8.60;4.20;;;;;;;22.94;60.97;95681.09;4967325;28;20039;-76
2021/09/26 10:46:16;;;;;;;9.20;4.10;;;;;;;22.54;63.01;95684.66;4962051;28;20039;-78
2021/09/26 10:49:02;;;;;;;9.15;4.15;;;;;;;22.27;63.09;95670.88;4964339;28;20043;-78
2021/09/26 10:51:49;;;;;;;12.75;4.50;;;;;;;22.57;59.79;95670.56;4970513;28;20047;-77
2021/09/26 10:54:36;;;;;;;11.45;4.40;;;;;;;22.35;62.86;95666.50;4968890;28;20561;-80
2021/09/26 10:57:10;;;;;;;11.48;3.88;;;;;;;22.33;62.79;95662.63;4968770;28;20054;-77
2021/09/26 10:59:43;;;;;;;12.87;4.03;;;;;;;;;;4969182;28;20441;-76
2021/09/26 11:02:24;;;;;;;14.25;4.10;;;;;;;22.57;61.09;95662.50;4954320;28;20046;-79
2021/09/26 11:04:55;;;;;;;7.43;4.28;;;;;;;22.66;59.04;95655.06;4968031;28;20117;-80
2021/09/26 11:07:23;;;;;;;10.05;4.30;;;;;;;22.56;60.92;95666.31;4969597;28;20038;-77
2021/09/26 11:09:53;;;;;;;11.30;4.60;;;;;;;22.50;61.35;95662.31;4976294;28;20054;-78
2021/09/26 11:12:46;;;;;;;10.82;4.38;;;;;;;22.30;62.26;95661.38;4970205;28;20125;-79
2021/09/26 11:15:19;;;;;;;10.60;4.60;;;;;;;22.32;59.71;95661.78;4951105;28;20062;-78
2021/09/26 11:17:46;;;;;;;7.15;3.97;;;;;;;22.49;61.00;95655.38;4960270;28;20042;-78
2021/09/26 11:20:30;;;;;;;8.93;4.47;;;;;;;22.63;61.47;95666.50;4972352;28;20548;-78
2021/09/26 11:23:05;;;;;;;8.02;4.25;;;;;;;22.46;60.16;95661.44;4971827;28;20047;-77
2021/09/26 11:26:00;;;;;;;11.50;4.22;;;;;;;22.70;58.57;95665.09;4958687;28;20109;-78
2021/09/26 11:28:30;;;;;;;13.45;4.50;;;;;;;22.92;59.57;95653.81;4956629;28;20055;-77
2021/09/26 11:30:57;;;;;;;10.98;4.20;;;;;;;23.27;58.54;95661.19;4969972;28;20134;-76
2021/09/26 11:33:23;;;;;;;12.10;4.88;;;;;;;24.17;57.21;95654.34;4966676;28;20114;-76